createdAt,value
2023-05-16T00:00:01.795Z,1.30
2023-05-16T00:02:31.500Z,1.30
2023-05-16T00:04:58.307Z,1.55
2023-05-16T00:07:25.103Z,1.20
2023-05-16T00:09:52.000Z,1.33
2023-05-16T00:12:19.870Z,1.33
2023-05-16T00:14:48.058Z,1.40
2023-05-16T00:17:17.678Z,1.38
2023-05-16T00:19:44.771Z,1.42
2023-05-16T00:22:11.843Z,1.40
2023-05-16T00:24:39.494Z,1.50
2023-05-16T00:27:06.813Z,1.73
2023-05-16T00:29:35.176Z,1.30
2023-05-16T00:32:01.828Z,1.40
2023-05-16T00:34:28.630Z,1.17
2023-05-16T00:36:55.455Z,1.30
2023-05-16T00:39:22.200Z,1.30
2023-05-16T00:41:49.175Z,1.20
2023-05-16T00:44:15.992Z,1.30
2023-05-16T00:46:43.626Z,1.10
2023-05-16T00:49:12.289Z,1.50
2023-05-16T00:51:39.610Z,1.23
2023-05-16T00:54:07.340Z,1.25
2023-05-16T00:56:34.781Z,1.45
2023-05-16T00:59:01.715Z,1.17
2023-05-16T01:01:28.632Z,1.15
2023-05-16T01:03:55.951Z,1.25
2023-05-16T01:06:23.034Z,1.42
2023-05-16T01:08:49.998Z,1.20
2023-05-16T01:11:28.394Z,1.38
2023-05-16T01:14:36.529Z,1.20
2023-05-16T01:17:19.162Z,1.27
2023-05-16T01:20:15.773Z,1.40
2023-05-16T01:23:03.776Z,1.30
2023-05-16T01:25:39.312Z,1.42
2023-05-16T01:28:08.094Z,1.10
2023-05-16T01:30:39.128Z,1.45
2023-05-16T01:33:06.263Z,1.20
2023-05-16T01:35:33.893Z,1.10
2023-05-16T01:38:06.536Z,1.10
2023-05-16T01:40:56.207Z,1.15
2023-05-16T01:43:34.478Z,1.15
2023-05-16T01:46:10.914Z,1.05
2023-05-16T01:48:47.520Z,1.27
2023-05-16T01:51:14.465Z,1.00
2023-05-16T01:53:42.405Z,1.13
2023-05-16T01:56:15.324Z,1.42
2023-05-16T01:58:43.565Z,1.17
2023-05-16T02:01:11.711Z,1.10
2023-05-16T02:03:38.675Z,1.20
2023-05-16T02:06:07.424Z,1.13
2023-05-16T02:08:34.148Z,1.10
2023-05-16T02:11:00.985Z,1.10
2023-05-16T02:13:27.744Z,1.30
2023-05-16T02:15:54.615Z,1.50
2023-05-16T02:18:23.600Z,1.17
2023-05-16T02:20:50.684Z,1.40
2023-05-16T02:23:17.379Z,1.33
2023-05-16T02:25:44.069Z,1.05
2023-05-16T02:28:11.090Z,1.13
2023-05-16T02:30:37.883Z,1.35
2023-05-16T02:33:04.920Z,1.30
2023-05-16T02:35:31.713Z,1.10
2023-05-16T02:38:00.009Z,1.20
2023-05-16T02:40:26.736Z,1.10
2023-05-16T02:42:53.453Z,1.50
2023-05-16T02:45:20.067Z,1.10
2023-05-16T02:47:46.975Z,1.08
2023-05-16T02:50:13.872Z,1.10
2023-05-16T02:52:41.008Z,0.93
2023-05-16T02:57:37.963Z,0.98
2023-05-16T03:00:06.337Z,1.13
2023-05-16T03:02:33.413Z,1.00
2023-05-16T03:05:00.161Z,1.23
2023-05-16T03:07:26.934Z,1.20
2023-05-16T03:09:53.876Z,1.25
2023-05-16T03:12:20.711Z,1.00
2023-05-16T03:14:47.392Z,1.10
2023-05-16T03:17:14.031Z,1.17
2023-05-16T03:19:40.780Z,1.40
2023-05-16T03:22:07.474Z,1.27
2023-05-16T03:24:34.244Z,1.45
2023-05-16T03:27:01.248Z,0.95
2023-05-16T03:29:27.940Z,1.30
2023-05-16T03:31:55.251Z,0.95
2023-05-16T03:34:22.821Z,1.00
2023-05-16T03:36:50.256Z,1.40
2023-05-16T03:39:17.490Z,1.00
2023-05-16T03:41:44.542Z,1.13
2023-05-16T03:44:11.359Z,1.10
2023-05-16T03:46:38.314Z,1.08
2023-05-16T03:49:05.067Z,0.88
2023-05-16T03:51:31.901Z,1.20
2023-05-16T03:53:58.736Z,1.17
2023-05-16T03:56:26.154Z,1.23
2023-05-16T03:58:52.839Z,1.15
2023-05-16T04:01:19.545Z,1.10
2023-05-16T04:03:46.330Z,1.10
2023-05-16T04:06:13.665Z,1.10
2023-05-16T04:08:41.177Z,1.10
2023-05-16T04:11:07.898Z,1.08
2023-05-16T04:13:34.680Z,1.10
2023-05-16T04:16:01.535Z,1.17
2023-05-16T04:18:28.295Z,1.15
2023-05-16T04:20:55.072Z,1.38
2023-05-16T04:23:21.702Z,1.13
2023-05-16T04:25:48.408Z,1.20
2023-05-16T04:28:15.732Z,1.38
2023-05-16T04:30:42.765Z,1.58
2023-05-16T04:33:09.720Z,1.10
2023-05-16T04:35:37.789Z,1.17
2023-05-16T04:38:04.794Z,1.15
2023-05-16T04:40:31.560Z,1.30
2023-05-16T04:42:58.398Z,1.10
2023-05-16T04:45:25.262Z,1.48
2023-05-16T04:47:52.319Z,1.33
2023-05-16T04:50:19.068Z,0.73
2023-05-16T04:52:45.782Z,1.20
2023-05-16T04:55:12.461Z,0.90
2023-05-16T04:57:39.436Z,0.90
2023-05-16T05:00:11.985Z,1.10
2023-05-16T05:02:39.268Z,1.48
2023-05-16T05:05:07.046Z,1.15
2023-05-16T05:07:34.204Z,1.20
2023-05-16T05:10:01.222Z,1.10
2023-05-16T05:12:28.098Z,0.88
2023-05-16T05:14:54.894Z,1.23
2023-05-16T05:17:23.567Z,1.40
2023-05-16T05:19:50.538Z,1.30
2023-05-16T05:22:17.642Z,0.90
2023-05-16T05:24:44.358Z,1.00
2023-05-16T05:27:11.007Z,1.10
2023-05-16T05:29:37.786Z,1.25
2023-05-16T05:32:04.999Z,1.13
2023-05-16T05:34:32.110Z,1.27
2023-05-16T05:36:59.164Z,1.30
2023-05-16T05:39:26.421Z,1.15
2023-05-16T05:41:53.086Z,1.10
2023-05-16T05:44:19.785Z,1.00
2023-05-16T05:46:46.930Z,0.93
2023-05-16T05:49:14.001Z,1.33
2023-05-16T05:51:41.134Z,1.45
2023-05-16T05:54:08.303Z,1.10
2023-05-16T05:56:35.465Z,0.90
2023-05-16T05:59:02.263Z,1.02
2023-05-16T06:04:17.877Z,1.30
2023-05-16T06:06:44.930Z,1.20
2023-05-16T06:09:12.780Z,1.00
2023-05-16T06:11:39.974Z,1.02
2023-05-16T06:14:06.824Z,0.90
2023-05-16T06:16:33.854Z,1.20
2023-05-16T06:19:00.954Z,1.10
2023-05-16T06:21:28.279Z,1.20
2023-05-16T06:23:55.228Z,1.05
2023-05-16T06:26:28.540Z,1.40
2023-05-16T06:28:55.558Z,0.80
2023-05-16T06:31:22.549Z,1.15
2023-05-16T06:33:49.719Z,1.20
2023-05-16T06:36:16.652Z,1.10
2023-05-16T06:38:43.708Z,1.40
2023-05-16T06:41:10.646Z,1.42
2023-05-16T06:43:37.599Z,0.90
2023-05-16T06:46:04.456Z,0.98
2023-05-16T06:48:31.636Z,0.90
2023-05-16T06:50:58.666Z,1.00
2023-05-16T06:53:26.395Z,0.95
2023-05-16T06:55:53.834Z,1.00
2023-05-16T06:58:20.877Z,0.88
2023-05-16T07:00:50.429Z,1.08
2023-05-16T07:03:17.393Z,1.48
2023-05-16T07:05:44.381Z,1.02
2023-05-16T07:08:12.358Z,1.10
2023-05-16T07:10:39.923Z,1.08
2023-05-16T07:13:07.337Z,0.93
2023-05-16T07:15:36.793Z,1.10
2023-05-16T07:18:03.908Z,1.10
2023-05-16T07:20:30.954Z,0.93
2023-05-16T07:23:01.639Z,1.10
2023-05-16T07:25:29.338Z,1.05
2023-05-16T07:27:58.464Z,1.08
2023-05-16T07:30:25.789Z,0.88
2023-05-16T07:32:52.761Z,0.90
2023-05-16T07:35:19.711Z,1.20
2023-05-16T07:37:46.526Z,0.70
2023-05-16T07:40:14.612Z,1.20
2023-05-16T07:42:41.585Z,0.85
2023-05-16T07:45:11.310Z,1.20
2023-05-16T07:47:38.350Z,0.90
2023-05-16T07:50:05.620Z,0.80
2023-05-16T07:52:32.409Z,0.90
2023-05-16T07:54:59.367Z,1.05
2023-05-16T07:57:27.316Z,1.00
2023-05-16T07:59:54.431Z,1.00
2023-05-16T08:02:24.856Z,1.10
2023-05-16T08:04:52.116Z,1.13
2023-05-16T08:07:19.007Z,0.75
2023-05-16T08:09:48.417Z,1.10
2023-05-16T08:12:15.430Z,0.90
2023-05-16T08:14:42.370Z,1.17
2023-05-16T08:17:09.156Z,0.90
2023-05-16T08:19:36.303Z,1.02
2023-05-16T08:22:05.595Z,0.90
2023-05-16T08:26:59.362Z,1.00
2023-05-16T08:29:26.743Z,1.33
2023-05-16T08:31:53.753Z,0.82
2023-05-16T08:34:20.814Z,0.98
2023-05-16T08:36:48.207Z,1.08
2023-05-16T08:39:15.253Z,0.90
2023-05-16T08:41:42.088Z,0.70
2023-05-16T08:44:10.514Z,0.80
2023-05-16T08:46:39.353Z,0.83
2023-05-16T08:49:08.084Z,0.80
2023-05-16T08:51:35.703Z,1.00
2023-05-16T08:54:09.873Z,1.27
2023-05-16T08:56:38.329Z,0.80
2023-05-16T08:59:05.152Z,0.87
2023-05-16T09:01:32.709Z,0.88
2023-05-16T09:04:00.921Z,0.73
2023-05-16T09:06:28.409Z,0.80
2023-05-16T09:08:56.495Z,0.65
2023-05-16T09:11:23.901Z,0.98
2023-05-16T09:13:51.159Z,0.70
2023-05-16T09:16:22.243Z,0.70
2023-05-16T09:18:57.946Z,0.85
2023-05-16T09:21:32.081Z,1.00
2023-05-16T09:24:06.604Z,0.82
2023-05-16T09:26:38.739Z,0.80
2023-05-16T09:29:14.744Z,0.70
2023-05-16T09:31:41.743Z,0.80
2023-05-16T09:34:11.422Z,0.80
2023-05-16T09:36:42.108Z,1.23
2023-05-16T09:39:11.466Z,0.90
2023-05-16T09:41:43.871Z,0.70
2023-05-16T09:44:15.557Z,0.90
2023-05-16T09:46:43.232Z,0.85
2023-05-16T09:49:18.811Z,0.90
2023-05-16T09:51:46.541Z,0.93
2023-05-16T09:54:13.427Z,0.70
2023-05-16T09:56:50.837Z,0.82
2023-05-16T09:59:22.105Z,0.70
2023-05-16T10:01:51.553Z,0.57
2023-05-16T10:04:20.960Z,0.90
2023-05-16T10:06:54.924Z,0.75
2023-05-16T10:09:26.934Z,0.70
2023-05-16T10:12:02.888Z,0.90
2023-05-16T10:14:35.347Z,0.85
2023-05-16T10:17:07.815Z,0.65
2023-05-16T10:19:43.621Z,0.52
2023-05-16T10:22:19.161Z,0.60
2023-05-16T10:25:01.183Z,0.80
2023-05-16T10:27:31.240Z,0.80
2023-05-16T10:29:59.120Z,0.60
2023-05-16T10:32:29.965Z,1.08
2023-05-16T10:35:03.706Z,0.60
2023-05-16T10:37:36.735Z,0.60
2023-05-16T10:40:19.972Z,0.68
2023-05-16T10:42:59.639Z,0.50
2023-05-16T10:45:29.461Z,0.60
2023-05-16T10:48:11.812Z,0.90
2023-05-16T10:50:54.615Z,0.50
2023-05-16T10:53:35.610Z,0.88
2023-05-16T10:56:06.343Z,0.63
2023-05-16T10:58:41.240Z,0.88
2023-05-16T11:01:27.105Z,0.60
2023-05-16T11:04:00.466Z,0.70
2023-05-16T11:06:45.239Z,0.95
2023-05-16T11:09:13.567Z,0.73
2023-05-16T11:11:55.551Z,0.65
2023-05-16T11:14:26.815Z,0.70
2023-05-16T11:17:24.021Z,0.85
2023-05-16T11:19:59.797Z,0.63
2023-05-16T11:22:33.897Z,0.60
2023-05-16T11:25:13.746Z,0.70
2023-05-16T11:27:46.913Z,0.65
2023-05-16T11:30:19.473Z,0.95
2023-05-16T11:32:51.059Z,0.65
2023-05-16T11:35:21.500Z,0.80
2023-05-16T11:37:59.415Z,0.90
2023-05-16T11:40:31.944Z,0.80
2023-05-16T11:43:04.684Z,0.65
2023-05-16T11:45:35.853Z,0.70
2023-05-16T11:48:28.701Z,0.60
2023-05-16T11:51:09.622Z,0.60
2023-05-16T11:53:39.841Z,1.00
2023-05-16T11:56:13.180Z,0.90
2023-05-16T11:58:41.893Z,0.70
2023-05-16T12:01:13.991Z,0.73
2023-05-16T12:03:41.324Z,0.47
2023-05-16T12:06:19.909Z,0.68
2023-05-16T12:08:55.818Z,0.60
2023-05-16T12:11:25.948Z,0.75
2023-05-16T12:13:54.346Z,0.88
2023-05-16T12:16:23.911Z,0.73
2023-05-16T12:18:51.510Z,0.68
2023-05-16T12:21:21.863Z,0.60
2023-05-16T12:24:00.658Z,0.60
2023-05-16T12:26:33.736Z,0.70
2023-05-16T12:29:03.782Z,0.50
2023-05-16T12:31:32.810Z,0.57
2023-05-16T12:34:04.480Z,0.50
2023-05-16T12:36:37.064Z,0.70
2023-05-16T12:39:09.517Z,0.50
2023-05-16T12:41:44.560Z,0.50
2023-05-16T12:44:19.609Z,0.60
2023-05-16T12:46:56.515Z,0.68
2023-05-16T12:49:32.836Z,0.70
2023-05-16T12:54:51.356Z,0.60
2023-05-16T12:57:22.937Z,0.63
2023-05-16T12:59:52.842Z,0.80
2023-05-16T13:02:30.666Z,0.65
2023-05-16T13:04:57.773Z,0.53
2023-05-16T13:09:53.603Z,0.70
2023-05-16T13:12:21.875Z,0.80
2023-05-16T13:14:48.809Z,0.50
2023-05-16T13:17:15.770Z,0.55
2023-05-16T13:19:42.638Z,0.77
2023-05-16T13:22:09.448Z,0.70
2023-05-16T13:24:36.521Z,0.60
2023-05-16T13:27:03.411Z,0.60
2023-05-16T13:29:30.877Z,0.52
2023-05-16T13:32:00.808Z,0.60
2023-05-16T13:34:27.703Z,0.80
2023-05-16T13:36:55.081Z,0.70
2023-05-16T13:39:22.571Z,0.43
2023-05-16T13:41:49.743Z,0.80
2023-05-16T13:44:19.563Z,1.05
2023-05-16T13:46:46.858Z,0.57
2023-05-16T13:49:13.630Z,0.70
2023-05-16T13:51:45.024Z,0.50
2023-05-16T13:54:14.026Z,0.60
2023-05-16T13:56:40.951Z,0.60
2023-05-16T13:59:10.183Z,0.40
2023-05-16T14:01:38.476Z,0.60
2023-05-16T14:04:06.207Z,0.60
2023-05-16T14:06:37.331Z,0.50
2023-05-16T14:09:07.110Z,0.63
2023-05-16T14:11:34.400Z,0.50
2023-05-16T14:14:01.869Z,0.80
2023-05-16T14:16:47.509Z,0.60
2023-05-16T14:19:31.734Z,0.80
2023-05-16T14:22:08.969Z,0.90
2023-05-16T14:24:59.263Z,0.50
2023-05-16T14:27:32.101Z,0.50
2023-05-16T14:30:03.004Z,0.50
2023-05-16T14:32:37.510Z,0.57
2023-05-16T14:35:21.014Z,0.68
2023-05-16T14:37:50.809Z,0.70
2023-05-16T14:43:26.420Z,0.60
2023-05-16T14:46:17.828Z,0.50
2023-05-16T14:48:47.901Z,0.60
2023-05-16T14:51:17.410Z,0.60
2023-05-16T14:53:46.757Z,0.77
2023-05-16T14:56:14.412Z,0.70
2023-05-16T14:58:59.115Z,0.90
2023-05-16T15:01:51.655Z,0.60
2023-05-16T15:04:38.525Z,0.50
2023-05-16T15:07:06.743Z,0.47
2023-05-16T15:09:39.895Z,0.60
2023-05-16T15:12:11.238Z,0.60
2023-05-16T15:14:43.680Z,1.05
2023-05-16T15:17:17.404Z,0.70
2023-05-16T15:19:59.226Z,0.70
2023-05-16T15:22:35.380Z,0.70
2023-05-16T15:25:05.269Z,0.70
2023-05-16T15:27:44.425Z,0.60
2023-05-16T15:30:17.828Z,0.88
2023-05-16T15:32:56.301Z,0.60
2023-05-16T15:38:06.518Z,0.70
2023-05-16T15:40:36.853Z,0.60
2023-05-16T15:43:17.280Z,0.50
2023-05-16T15:46:19.813Z,0.85
2023-05-16T15:48:57.539Z,0.60
2023-05-16T15:51:35.571Z,0.70
2023-05-16T15:54:05.784Z,0.70
2023-05-16T15:56:34.952Z,0.50
2023-05-16T16:01:30.670Z,0.60
2023-05-16T16:04:02.437Z,0.60
2023-05-16T16:06:33.896Z,0.88
2023-05-16T16:09:03.213Z,0.80
2023-05-16T16:11:31.565Z,0.63
2023-05-16T16:13:58.711Z,0.60
2023-05-16T16:16:28.774Z,0.73
2023-05-16T16:18:55.930Z,0.57
2023-05-16T16:21:23.932Z,0.70
2023-05-16T16:23:51.276Z,0.68
2023-05-16T16:26:18.488Z,0.60
2023-05-16T16:28:45.722Z,0.70
2023-05-16T16:31:16.445Z,0.73
2023-05-16T16:33:44.982Z,0.80
2023-05-16T16:36:13.391Z,0.50
2023-05-16T16:38:42.693Z,0.70
2023-05-16T16:41:10.505Z,0.68
2023-05-16T16:43:40.189Z,0.85
2023-05-16T16:46:08.330Z,0.68
2023-05-16T16:48:36.500Z,0.90
2023-05-16T16:51:03.790Z,0.70
2023-05-16T16:53:30.887Z,0.70
2023-05-16T16:55:57.846Z,0.73
2023-05-16T16:58:26.602Z,0.60
2023-05-16T17:00:54.411Z,0.60
2023-05-16T17:03:21.853Z,0.60
2023-05-16T17:05:53.319Z,0.65
2023-05-16T17:08:21.971Z,0.60
2023-05-16T17:10:51.556Z,0.70
2023-05-16T17:13:21.037Z,0.73
2023-05-16T17:15:55.070Z,0.70
2023-05-16T17:18:34.633Z,0.70
2023-05-16T17:21:04.349Z,0.77
2023-05-16T17:23:34.521Z,0.63
2023-05-16T17:26:05.268Z,0.70
2023-05-16T17:28:42.946Z,0.70
2023-05-16T17:31:13.279Z,0.77
2023-05-16T17:33:43.070Z,0.80
2023-05-16T17:36:11.837Z,0.80
2023-05-16T17:38:41.381Z,0.50
2023-05-16T17:41:08.232Z,0.60
2023-05-16T17:43:37.851Z,0.70
2023-05-16T17:46:06.971Z,0.68
2023-05-16T17:48:33.732Z,0.68
2023-05-16T17:51:01.956Z,0.60
2023-05-16T17:53:29.700Z,0.60
2023-05-16T17:55:56.907Z,0.60
2023-05-16T17:58:24.203Z,0.52
2023-05-16T18:00:51.066Z,0.60
2023-05-16T18:03:18.503Z,0.50
2023-05-16T18:05:45.696Z,0.60
2023-05-16T18:08:15.139Z,0.68
2023-05-16T18:13:19.951Z,0.80
2023-05-16T18:15:49.555Z,0.55
2023-05-16T18:18:17.953Z,0.70
2023-05-16T18:20:46.114Z,0.60
2023-05-16T18:23:13.377Z,1.00
2023-05-16T18:25:54.056Z,0.70
2023-05-16T18:28:21.716Z,0.50
2023-05-16T18:30:49.493Z,0.60
2023-05-16T18:33:16.920Z,0.63
2023-05-16T18:35:43.978Z,0.55
2023-05-16T18:38:20.129Z,0.73
2023-05-16T18:40:58.642Z,0.60
2023-05-16T18:43:25.558Z,0.85
2023-05-16T18:45:52.516Z,0.60
2023-05-16T18:48:20.166Z,0.73
2023-05-16T18:50:50.245Z,0.52
2023-05-16T18:53:23.444Z,0.60
2023-05-16T18:55:50.948Z,0.80
2023-05-16T18:58:17.755Z,0.63
2023-05-16T19:00:45.176Z,0.75
2023-05-16T19:03:13.523Z,0.80
2023-05-16T19:05:40.829Z,0.50
2023-05-16T19:08:07.696Z,0.65
2023-05-16T19:10:38.186Z,0.70
2023-05-16T19:13:08.309Z,0.82
2023-05-16T19:15:36.534Z,0.90
2023-05-16T19:18:07.790Z,0.70
2023-05-16T19:20:35.671Z,0.70
2023-05-16T19:23:03.495Z,0.60
2023-05-16T19:25:30.698Z,0.73
2023-05-16T19:27:57.534Z,0.60
2023-05-16T19:30:25.018Z,0.60
2023-05-16T19:32:52.013Z,0.70
2023-05-16T19:35:19.765Z,0.60
2023-05-16T19:37:46.930Z,0.60
2023-05-16T19:40:16.914Z,0.57
2023-05-16T19:42:44.391Z,0.60
2023-05-16T19:45:13.871Z,0.63
2023-05-16T19:47:43.855Z,0.70
2023-05-16T19:50:13.702Z,0.80
2023-05-16T19:52:42.710Z,0.60
2023-05-16T19:55:19.490Z,0.60
2023-05-16T19:57:46.858Z,0.60
2023-05-16T20:00:21.775Z,0.65
2023-05-16T20:06:15.235Z,0.50
2023-05-16T20:08:42.695Z,0.60
2023-05-16T20:11:09.924Z,0.68
2023-05-16T20:13:41.644Z,0.80
2023-05-16T20:18:51.496Z,0.50
2023-05-16T20:21:18.630Z,0.65
2023-05-16T20:23:45.319Z,0.60
2023-05-16T20:26:14.898Z,0.57
2023-05-16T20:28:42.151Z,0.60
2023-05-16T20:31:09.189Z,0.90
2023-05-16T20:33:36.226Z,0.88
2023-05-16T20:36:03.493Z,0.70
2023-05-16T20:38:30.410Z,0.60
2023-05-16T20:40:57.324Z,0.68
2023-05-16T20:43:26.525Z,0.70
2023-05-16T20:45:53.589Z,0.50
2023-05-16T20:48:21.046Z,1.02
2023-05-16T20:50:48.094Z,0.70
2023-05-16T20:53:15.073Z,0.70
2023-05-16T20:55:41.953Z,0.57
2023-05-16T20:58:08.978Z,1.00
2023-05-16T21:00:35.883Z,0.75
2023-05-16T21:03:03.160Z,0.82
2023-05-16T21:05:30.235Z,0.77
2023-05-16T21:07:56.920Z,0.82
2023-05-16T21:10:23.635Z,1.00
2023-05-16T21:12:50.492Z,0.90
2023-05-16T21:15:17.347Z,0.88
2023-05-16T21:17:44.137Z,0.70
2023-05-16T21:20:11.316Z,0.80
2023-05-16T21:22:38.066Z,0.80
2023-05-16T21:25:05.735Z,1.05
2023-05-16T21:27:33.050Z,0.80
2023-05-16T21:29:59.898Z,0.70
2023-05-16T21:32:32.021Z,0.70
2023-05-16T21:35:01.115Z,0.70
2023-05-16T21:37:27.863Z,0.70
2023-05-16T21:39:55.082Z,0.60
2023-05-16T21:42:21.897Z,0.90
2023-05-16T21:44:48.878Z,1.00
2023-05-16T21:47:15.567Z,0.80
2023-05-16T21:49:42.267Z,0.60
2023-05-16T21:52:09.138Z,0.70
2023-05-16T21:54:36.009Z,0.80
2023-05-16T21:57:02.740Z,0.95
2023-05-16T21:59:29.469Z,0.70
2023-05-16T22:01:56.230Z,0.70
2023-05-16T22:04:23.762Z,0.60
2023-05-16T22:06:50.699Z,0.75
2023-05-16T22:09:17.292Z,0.73
2023-05-16T22:11:43.975Z,0.70
2023-05-16T22:14:10.715Z,0.80
2023-05-16T22:16:37.693Z,0.50
2023-05-16T22:19:04.391Z,0.80
2023-05-16T22:21:31.277Z,0.70
2023-05-16T22:23:57.996Z,0.80
2023-05-16T22:26:24.805Z,0.82
2023-05-16T22:28:51.614Z,0.73
2023-05-16T22:31:18.312Z,0.70
2023-05-16T22:33:45.329Z,0.80
2023-05-16T22:36:12.056Z,0.73
2023-05-16T22:38:38.755Z,0.50
2023-05-16T22:41:05.551Z,0.60
2023-05-16T22:43:32.631Z,0.70
2023-05-16T22:46:02.220Z,0.70
2023-05-16T22:48:30.096Z,0.70
2023-05-16T22:50:57.717Z,0.75
2023-05-16T22:53:24.372Z,0.70
2023-05-16T22:55:51.160Z,0.70
2023-05-16T22:58:17.944Z,0.60
2023-05-16T23:00:44.720Z,0.50
2023-05-16T23:03:11.698Z,0.70
2023-05-16T23:05:38.465Z,0.75
2023-05-16T23:08:06.541Z,0.60
2023-05-16T23:10:33.338Z,0.50
2023-05-16T23:13:00.119Z,0.60
2023-05-16T23:15:27.185Z,0.60
2023-05-16T23:17:54.078Z,0.70
2023-05-16T23:20:20.991Z,0.90
2023-05-16T23:22:47.810Z,0.70
2023-05-16T23:25:14.548Z,0.70
2023-05-16T23:27:41.222Z,0.75
2023-05-16T23:30:09.233Z,0.77
2023-05-16T23:32:36.603Z,0.50
2023-05-16T23:35:03.716Z,1.08
2023-05-16T23:37:31.052Z,0.80
2023-05-16T23:39:58.242Z,0.60
2023-05-16T23:42:25.109Z,0.70
2023-05-16T23:44:51.987Z,0.60
2023-05-16T23:47:18.667Z,0.80
2023-05-16T23:49:45.519Z,0.70
2023-05-16T23:52:12.469Z,0.63
2023-05-16T23:54:39.209Z,0.45
2023-05-16T23:57:05.906Z,0.70
2023-05-16T23:59:32.611Z,0.80
